Inarajan, Guam
Current Conditions -  °F | °C
As of 12:54 PM on Monday 24 Nov 2014 (Local Time) from PGUM Reporting Station
Scattered Clouds Scattered Clouds  
Wind Chill: 88°   Ceiling: Unl
Heat Index: 99°   Visibility: 10mi
Dew Point: 76°   Wind: 14mph
Humidity: 67%   Direction: 110°ESE
Pressure: 29.86"   Gusts: 21mph
Location:  13.28°N, 144.74°E
Report Text: PGUM 240254Z 11012G18KT 10SM SCT025 31/24 A2986 RMK AO2 SLP104 T03110244 58019
Loading
Personal Weather Stations






























Interactive Weather Map New forecast layout! Learn more

10-Day Weather Forecast

Advertisements
Track Severe Weather on mobile